sensor_id;sensor_type;location;lat;lon;timestamp;pressure;altitude;pressure_sealevel;temperature;humidity
1926;BME280;964;42.606;23.588;2023-06-14T00:01:49;94198.56;;;35.29;34.84
1926;BME280;964;42.606;23.588;2023-06-14T00:04:16;94199.72;;;35.15;34.76
1926;BME280;964;42.606;23.588;2023-06-14T00:06:43;94195.91;;;34.94;35.10
1926;BME280;964;42.606;23.588;2023-06-14T00:09:12;94198.53;;;35.05;34.88
1926;BME280;964;42.606;23.588;2023-06-14T00:11:39;94191.78;;;35.06;35.02
1926;BME280;964;42.606;23.588;2023-06-14T00:14:06;94190.94;;;35.17;35.18
1926;BME280;964;42.606;23.588;2023-06-14T00:16:32;94193.50;;;35.33;34.43
1926;BME280;964;42.606;23.588;2023-06-14T00:19:00;94197.97;;;35.12;34.71
1926;BME280;964;42.606;23.588;2023-06-14T01:03:38;94168.31;;;34.45;36.01
1926;BME280;964;42.606;23.588;2023-06-14T01:06:15;94170.81;;;34.43;36.32
1926;BME280;964;42.606;23.588;2023-06-14T01:08:58;94170.91;;;34.32;36.29
1926;BME280;964;42.606;23.588;2023-06-14T01:11:32;94173.00;;;34.51;36.20
1926;BME280;964;42.606;23.588;2023-06-14T01:14:02;94166.28;;;34.16;36.69
1926;BME280;964;42.606;23.588;2023-06-14T01:16:29;94168.16;;;33.97;36.83
1926;BME280;964;42.606;23.588;2023-06-14T01:18:59;94167.88;;;34.36;36.33
1926;BME280;964;42.606;23.588;2023-06-14T01:21:27;94166.72;;;34.56;35.90
1926;BME280;964;42.606;23.588;2023-06-14T01:23:56;94166.72;;;34.56;35.65
1926;BME280;964;42.606;23.588;2023-06-14T01:26:23;94168.78;;;34.50;36.12
1926;BME280;964;42.606;23.588;2023-06-14T01:28:52;94160.88;;;34.65;35.78
1926;BME280;964;42.606;23.588;2023-06-14T01:31:23;94163.88;;;34.67;35.85
1926;BME280;964;42.606;23.588;2023-06-14T01:33:51;94159.06;;;34.73;35.53
1926;BME280;964;42.606;23.588;2023-06-14T01:36:19;94161.25;;;34.80;35.72
1926;BME280;964;42.606;23.588;2023-06-14T01:38:46;94159.53;;;34.77;35.68
1926;BME280;964;42.606;23.588;2023-06-14T01:41:17;94166.53;;;34.78;35.69
1926;BME280;964;42.606;23.588;2023-06-14T01:43:45;94161.66;;;34.60;35.81
1926;BME280;964;42.606;23.588;2023-06-14T01:46:14;94166.63;;;34.67;35.96
1926;BME280;964;42.606;23.588;2023-06-14T01:48:42;94161.25;;;34.80;35.68
1926;BME280;964;42.606;23.588;2023-06-14T01:51:08;94161.69;;;34.84;35.65
1926;BME280;964;42.606;23.588;2023-06-14T01:53:35;94170.44;;;34.88;35.23
1926;BME280;964;42.606;23.588;2023-06-14T01:56:02;94155.53;;;34.78;35.48
1926;BME280;964;42.606;23.588;2023-06-14T01:58:30;94165.50;;;34.81;35.20
1926;BME280;964;42.606;23.588;2023-06-14T02:00:57;94159.06;;;34.73;35.37
1926;BME280;964;42.606;23.588;2023-06-14T02:03:26;94158.88;;;34.65;35.90
1926;BME280;964;42.606;23.588;2023-06-14T02:05:52;94167.03;;;34.46;35.95
1926;BME280;964;42.606;23.588;2023-06-14T02:08:20;94165.59;;;34.40;36.14
1926;BME280;964;42.606;23.588;2023-06-14T02:10:47;94170.50;;;34.53;36.08
1926;BME280;964;42.606;23.588;2023-06-14T02:13:14;94176.28;;;34.49;36.17
1926;BME280;964;42.606;23.588;2023-06-14T02:15:42;94170.03;;;34.48;36.44
1926;BME280;964;42.606;23.588;2023-06-14T02:18:10;94175.47;;;34.54;35.97
1926;BME280;964;42.606;23.588;2023-06-14T02:20:37;94177.22;;;34.57;35.96
1926;BME280;964;42.606;23.588;2023-06-14T02:23:03;94184.44;;;33.89;37.07
1926;BME280;964;42.606;23.588;2023-06-14T02:25:31;94185.56;;;34.16;36.87
1926;BME280;964;42.606;23.588;2023-06-14T02:27:58;94185.47;;;34.27;36.29
1926;BME280;964;42.606;23.588;2023-06-14T02:30:24;94185.13;;;34.72;35.84
1926;BME280;964;42.606;23.588;2023-06-14T02:32:52;94179.91;;;34.68;36.36
1926;BME280;964;42.606;23.588;2023-06-14T02:35:19;94180.50;;;34.80;35.86
1926;BME280;964;42.606;23.588;2023-06-14T02:37:47;94179.84;;;34.74;36.15
1926;BME280;964;42.606;23.588;2023-06-14T02:40:14;94181.38;;;34.69;35.80
1926;BME280;964;42.606;23.588;2023-06-14T02:42:40;94176.97;;;34.85;35.46
1926;BME280;964;42.606;23.588;2023-06-14T02:45:08;94186.13;;;34.69;35.80
1926;BME280;964;42.606;23.588;2023-06-14T02:47:35;94185.63;;;33.99;36.94
1926;BME280;964;42.606;23.588;2023-06-14T02:50:03;94188.06;;;34.09;36.72
1926;BME280;964;42.606;23.588;2023-06-14T02:52:30;94189.94;;;34.30;36.61
1926;BME280;964;42.606;23.588;2023-06-14T02:54:58;94194.88;;;34.97;35.58
1926;BME280;964;42.606;23.588;2023-06-14T02:57:25;94190.72;;;35.09;35.30
1926;BME280;964;42.606;23.588;2023-06-14T02:59:51;94193.09;;;35.00;35.52
1926;BME280;964;42.606;23.588;2023-06-14T03:02:18;94197.22;;;34.87;35.80
1926;BME280;964;42.606;23.588;2023-06-14T03:04:45;94194.81;;;34.48;35.95
1926;BME280;964;42.606;23.588;2023-06-14T03:07:13;94200.88;;;34.41;36.52
1926;BME280;964;42.606;23.588;2023-06-14T03:09:44;94193.72;;;34.87;35.77
1926;BME280;964;42.606;23.588;2023-06-14T03:12:11;94197.84;;;34.99;35.22
1926;BME280;964;42.606;23.588;2023-06-14T03:14:38;94206.75;;;34.86;35.54
1926;BME280;964;42.606;23.588;2023-06-14T03:17:05;94206.69;;;34.68;36.16
1926;BME280;964;42.606;23.588;2023-06-14T03:19:33;94196.53;;;34.81;35.36
1926;BME280;964;42.606;23.588;2023-06-14T03:22:00;94199.75;;;34.85;35.28
1926;BME280;964;42.606;23.588;2023-06-14T03:24:29;94198.72;;;34.88;35.48
1926;BME280;964;42.606;23.588;2023-06-14T03:26:57;94195.47;;;34.90;35.16
1926;BME280;964;42.606;23.588;2023-06-14T03:29:24;94199.81;;;35.04;35.37
1926;BME280;964;42.606;23.588;2023-06-14T03:31:58;94206.06;;;35.05;35.01
1926;BME280;964;42.606;23.588;2023-06-14T03:34:25;94210.84;;;35.04;35.07
1926;BME280;964;42.606;23.588;2023-06-14T03:36:53;94208.06;;;34.80;35.77
1926;BME280;964;42.606;23.588;2023-06-14T03:39:19;94211.69;;;34.93;35.55
1926;BME280;964;42.606;23.588;2023-06-14T03:41:47;94216.81;;;34.48;35.82
1926;BME280;964;42.606;23.588;2023-06-14T03:44:15;94215.25;;;34.23;36.67
1926;BME280;964;42.606;23.588;2023-06-14T03:46:43;94211.22;;;34.60;35.91
1926;BME280;964;42.606;23.588;2023-06-14T03:49:10;94207.09;;;34.77;35.85
1926;BME280;964;42.606;23.588;2023-06-14T03:51:37;94207.75;;;35.13;35.11
1926;BME280;964;42.606;23.588;2023-06-14T03:54:05;94205.66;;;34.71;35.88
1926;BME280;964;42.606;23.588;2023-06-14T03:56:32;94210.00;;;35.15;35.57
1926;BME280;964;42.606;23.588;2023-06-14T03:59:00;94209.09;;;34.77;35.48
1926;BME280;964;42.606;23.588;2023-06-14T04:01:28;94206.94;;;35.18;35.35
1926;BME280;964;42.606;23.588;2023-06-14T04:03:56;94212.06;;;34.08;36.72
1926;BME280;964;42.606;23.588;2023-06-14T04:06:23;94209.34;;;35.03;35.86
1926;BME280;964;42.606;23.588;2023-06-14T04:08:57;94216.81;;;35.32;35.04
1926;BME280;964;42.606;23.588;2023-06-14T04:11:29;94216.00;;;35.13;35.37
1926;BME280;964;42.606;23.588;2023-06-14T04:13:56;94219.31;;;34.82;35.86
1926;BME280;964;42.606;23.588;2023-06-14T04:16:24;94219.78;;;35.10;35.37
1926;BME280;964;42.606;23.588;2023-06-14T04:18:51;94215.53;;;34.85;35.66
1926;BME280;964;42.606;23.588;2023-06-14T04:21:18;94220.56;;;34.81;35.56
1926;BME280;964;42.606;23.588;2023-06-14T04:23:45;94217.69;;;35.22;35.10
1926;BME280;964;42.606;23.588;2023-06-14T04:26:12;94218.50;;;34.87;35.54
1926;BME280;964;42.606;23.588;2023-06-14T04:28:39;94224.00;;;34.87;35.45
1926;BME280;964;42.606;23.588;2023-06-14T04:31:07;94227.84;;;35.32;34.77
1926;BME280;964;42.606;23.588;2023-06-14T04:33:35;94222.41;;;35.46;35.02
1926;BME280;964;42.606;23.588;2023-06-14T04:36:09;94235.84;;;35.06;34.75
1926;BME280;964;42.606;23.588;2023-06-14T04:38:35;94228.53;;;35.14;34.87
1926;BME280;964;42.606;23.588;2023-06-14T04:41:02;94245.19;;;34.97;35.05
1926;BME280;964;42.606;23.588;2023-06-14T04:43:29;94232.50;;;34.89;35.54
1926;BME280;964;42.606;23.588;2023-06-14T04:45:57;94237.69;;;34.33;36.48
1926;BME280;964;42.606;23.588;2023-06-14T04:48:23;94238.28;;;34.56;35.71
1926;BME280;964;42.606;23.588;2023-06-14T04:50:51;94240.13;;;35.02;35.14
1926;BME280;964;42.606;23.588;2023-06-14T04:53:19;94241.34;;;35.06;35.21
1926;BME280;964;42.606;23.588;2023-06-14T04:55:48;94236.97;;;35.22;34.95
1926;BME280;964;42.606;23.588;2023-06-14T04:58:15;94239.66;;;35.27;34.91
1926;BME280;964;42.606;23.588;2023-06-14T05:00:42;94238.06;;;35.56;34.71
1926;BME280;964;42.606;23.588;2023-06-14T05:03:09;94236.78;;;35.63;34.60
1926;BME280;964;42.606;23.588;2023-06-14T05:05:39;94238.66;;;35.73;35.18
1926;BME280;964;42.606;23.588;2023-06-14T05:08:07;94234.78;;;35.82;35.01
1926;BME280;964;42.606;23.588;2023-06-14T05:10:34;94238.41;;;35.71;34.80
1926;BME280;964;42.606;23.588;2023-06-14T05:13:01;94232.59;;;35.75;34.47
1926;BME280;964;42.606;23.588;2023-06-14T05:15:28;94237.38;;;35.93;35.02
1926;BME280;964;42.606;23.588;2023-06-14T05:17:55;94246.50;;;35.21;35.60
1926;BME280;964;42.606;23.588;2023-06-14T05:20:22;94251.94;;;35.51;34.87
1926;BME280;964;42.606;23.588;2023-06-14T05:22:50;94237.09;;;35.97;34.46
1926;BME280;964;42.606;23.588;2023-06-14T05:25:19;94246.00;;;36.08;34.40
1926;BME280;964;42.606;23.588;2023-06-14T05:27:46;94252.28;;;36.41;33.75
1926;BME280;964;42.606;23.588;2023-06-14T05:30:14;94246.72;;;36.27;33.15
1926;BME280;964;42.606;23.588;2023-06-14T05:32:41;94252.69;;;35.94;33.98
1926;BME280;964;42.606;23.588;2023-06-14T05:35:08;94246.56;;;36.57;33.91
1926;BME280;964;42.606;23.588;2023-06-14T05:37:36;94246.25;;;36.61;33.31
1926;BME280;964;42.606;23.588;2023-06-14T05:40:03;94251.31;;;36.57;33.08
1926;BME280;964;42.606;23.588;2023-06-14T05:42:32;94247.66;;;36.49;33.45
1926;BME280;964;42.606;23.588;2023-06-14T05:44:59;94245.47;;;36.28;33.71
1926;BME280;964;42.606;23.588;2023-06-14T05:47:26;94249.47;;;35.90;33.61
1926;BME280;964;42.606;23.588;2023-06-14T05:49:53;94246.34;;;35.99;33.98
1926;BME280;964;42.606;23.588;2023-06-14T05:52:20;94246.78;;;35.60;34.24
1926;BME280;964;42.606;23.588;2023-06-14T05:54:47;94245.63;;;36.17;33.45
1926;BME280;964;42.606;23.588;2023-06-14T05:57:14;94252.00;;;35.88;33.88
1926;BME280;964;42.606;23.588;2023-06-14T05:59:42;94252.06;;;36.38;33.90
1926;BME280;964;42.606;23.588;2023-06-14T06:02:09;94250.44;;;36.80;33.30
1926;BME280;964;42.606;23.588;2023-06-14T06:04:35;94248.66;;;36.83;33.00
1926;BME280;964;42.606;23.588;2023-06-14T06:07:02;94254.97;;;37.10;32.60
1926;BME280;964;42.606;23.588;2023-06-14T06:09:29;94263.19;;;37.42;32.41
1926;BME280;964;42.606;23.588;2023-06-14T06:11:55;94258.06;;;37.46;31.75
1926;BME280;964;42.606;23.588;2023-06-14T06:14:22;94264.78;;;37.90;31.79
1926;BME280;964;42.606;23.588;2023-06-14T06:16:50;94256.94;;;38.27;31.13
1926;BME280;964;42.606;23.588;2023-06-14T06:19:17;94265.13;;;37.73;31.57
1926;BME280;964;42.606;23.588;2023-06-14T06:21:44;94261.06;;;37.48;31.33
1926;BME280;964;42.606;23.588;2023-06-14T06:24:11;94266.69;;;37.29;32.33
1926;BME280;964;42.606;23.588;2023-06-14T06:26:38;94268.28;;;37.90;31.16
1926;BME280;964;42.606;23.588;2023-06-14T06:29:05;94272.47;;;36.99;32.75
1926;BME280;964;42.606;23.588;2023-06-14T06:31:31;94271.63;;;37.62;31.55
1926;BME280;964;42.606;23.588;2023-06-14T06:33:59;94261.19;;;38.42;30.95
1926;BME280;964;42.606;23.588;2023-06-14T06:36:26;94265.03;;;38.25;30.58
1926;BME280;964;42.606;23.588;2023-06-14T06:38:53;94267.44;;;38.76;30.22
1926;BME280;964;42.606;23.588;2023-06-14T06:41:19;94268.63;;;38.34;30.81
1926;BME280;964;42.606;23.588;2023-06-14T06:43:46;94273.50;;;38.54;30.83
1926;BME280;964;42.606;23.588;2023-06-14T06:46:12;94275.34;;;38.93;30.76
1926;BME280;964;42.606;23.588;2023-06-14T06:48:39;94280.19;;;39.41;30.27
1926;BME280;964;42.606;23.588;2023-06-14T06:51:07;94276.34;;;39.23;29.29
1926;BME280;964;42.606;23.588;2023-06-14T06:53:34;94280.50;;;38.89;29.79
1926;BME280;964;42.606;23.588;2023-06-14T06:56:00;94277.34;;;38.51;30.49
1926;BME280;964;42.606;23.588;2023-06-14T06:58:27;94282.25;;;38.45;31.05
1926;BME280;964;42.606;23.588;2023-06-14T07:00:54;94283.22;;;37.74;31.55
1926;BME280;964;42.606;23.588;2023-06-14T07:03:21;94278.22;;;38.46;30.51
1926;BME280;964;42.606;23.588;2023-06-14T07:05:48;94280.16;;;38.24;30.57
1926;BME280;964;42.606;23.588;2023-06-14T07:08:16;94275.53;;;38.53;30.34
1926;BME280;964;42.606;23.588;2023-06-14T07:10:43;94275.38;;;38.59;30.46
1926;BME280;964;42.606;23.588;2023-06-14T07:13:09;94282.00;;;38.56;30.48
1926;BME280;964;42.606;23.588;2023-06-14T07:15:36;94283.09;;;38.53;30.33
1926;BME280;964;42.606;23.588;2023-06-14T07:18:04;94284.22;;;38.23;30.60
1926;BME280;964;42.606;23.588;2023-06-14T07:20:32;94278.16;;;38.25;30.81
1926;BME280;964;42.606;23.588;2023-06-14T07:22:58;94283.50;;;38.57;30.55
1926;BME280;964;42.606;23.588;2023-06-14T07:25:27;94278.69;;;38.23;30.93
1926;BME280;964;42.606;23.588;2023-06-14T07:27:53;94282.34;;;37.92;31.18
1926;BME280;964;42.606;23.588;2023-06-14T07:30:20;94280.19;;;38.11;31.35
1926;BME280;964;42.606;23.588;2023-06-14T07:32:51;94270.38;;;38.57;30.58
1926;BME280;964;42.606;23.588;2023-06-14T07:35:17;94272.13;;;39.02;29.92
1926;BME280;964;42.606;23.588;2023-06-14T07:37:44;94272.56;;;39.34;29.47
1926;BME280;964;42.606;23.588;2023-06-14T07:40:13;94280.91;;;38.59;30.61
1926;BME280;964;42.606;23.588;2023-06-14T07:42:41;94275.00;;;38.75;29.39
1926;BME280;964;42.606;23.588;2023-06-14T07:45:08;94272.00;;;39.36;29.26
1926;BME280;964;42.606;23.588;2023-06-14T07:47:35;94271.75;;;39.54;29.65
1926;BME280;964;42.606;23.588;2023-06-14T07:50:02;94262.38;;;40.44;29.06
1926;BME280;964;42.606;23.588;2023-06-14T07:52:29;94264.25;;;39.98;28.34
1926;BME280;964;42.606;23.588;2023-06-14T07:54:56;94265.28;;;41.13;28.29
1926;BME280;964;42.606;23.588;2023-06-14T07:57:23;94263.59;;;41.25;27.33
1926;BME280;964;42.606;23.588;2023-06-14T07:59:51;94280.50;;;40.38;28.29
1926;BME280;964;42.606;23.588;2023-06-14T08:02:18;94280.84;;;41.31;27.40
1926;BME280;964;42.606;23.588;2023-06-14T08:04:44;94282.88;;;41.38;26.61
1926;BME280;964;42.606;23.588;2023-06-14T08:07:12;94289.72;;;41.37;27.10
1926;BME280;964;42.606;23.588;2023-06-14T08:09:38;94290.84;;;41.03;26.77
1926;BME280;964;42.606;23.588;2023-06-14T08:12:06;94304.13;;;39.52;28.80
1926;BME280;964;42.606;23.588;2023-06-14T08:14:35;94298.66;;;39.39;28.89
1926;BME280;964;42.606;23.588;2023-06-14T08:17:03;94304.69;;;39.09;29.19
1926;BME280;964;42.606;23.588;2023-06-14T08:19:30;94300.75;;;39.74;27.80
1926;BME280;964;42.606;23.588;2023-06-14T08:21:57;94308.69;;;40.06;27.48
1926;BME280;964;42.606;23.588;2023-06-14T08:24:23;94312.59;;;40.54;27.96
1926;BME280;964;42.606;23.588;2023-06-14T08:26:50;94313.94;;;40.60;27.38
1926;BME280;964;42.606;23.588;2023-06-14T08:29:17;94310.66;;;40.34;27.61
1926;BME280;964;42.606;23.588;2023-06-14T08:31:43;94293.78;;;41.74;26.60
1926;BME280;964;42.606;23.588;2023-06-14T08:34:12;94291.84;;;42.06;26.31
1926;BME280;964;42.606;23.588;2023-06-14T08:36:38;94293.69;;;42.91;25.10
1926;BME280;964;42.606;23.588;2023-06-14T08:39:06;94280.88;;;43.97;23.90
1926;BME280;964;42.606;23.588;2023-06-14T08:41:34;94276.66;;;44.06;23.66
1926;BME280;964;42.606;23.588;2023-06-14T08:44:02;94283.22;;;43.66;23.51
1926;BME280;964;42.606;23.588;2023-06-14T08:46:32;94289.16;;;43.04;23.93
1926;BME280;964;42.606;23.588;2023-06-14T08:49:01;94289.41;;;42.58;24.66
1926;BME280;964;42.606;23.588;2023-06-14T08:51:30;94282.13;;;42.30;25.55
1926;BME280;964;42.606;23.588;2023-06-14T08:53:59;94282.41;;;42.49;25.30
1926;BME280;964;42.606;23.588;2023-06-14T08:56:27;94276.31;;;43.25;24.46
1926;BME280;964;42.606;23.588;2023-06-14T08:58:55;94270.25;;;43.78;23.74
1926;BME280;964;42.606;23.588;2023-06-14T09:01:22;94275.25;;;44.75;24.22
1926;BME280;964;42.606;23.588;2023-06-14T09:03:49;94269.53;;;45.19;22.97
1926;BME280;964;42.606;23.588;2023-06-14T09:06:17;94264.94;;;46.56;22.81
1926;BME280;964;42.606;23.588;2023-06-14T09:08:46;94259.84;;;47.24;21.19
1926;BME280;964;42.606;23.588;2023-06-14T09:11:15;94264.94;;;45.05;23.00
1926;BME280;964;42.606;23.588;2023-06-14T09:13:44;94263.66;;;46.00;22.63
1926;BME280;964;42.606;23.588;2023-06-14T09:16:11;94256.00;;;45.91;22.39
1926;BME280;964;42.606;23.588;2023-06-14T09:18:39;94265.78;;;45.34;22.03
1926;BME280;964;42.606;23.588;2023-06-14T09:21:09;94265.50;;;44.67;23.57
1926;BME280;964;42.606;23.588;2023-06-14T09:23:36;94261.66;;;44.45;24.06
1926;BME280;964;42.606;23.588;2023-06-14T09:26:08;94264.25;;;44.87;23.24
1926;BME280;964;42.606;23.588;2023-06-14T09:28:36;94253.59;;;45.68;22.10
1926;BME280;964;42.606;23.588;2023-06-14T09:31:07;94256.09;;;45.64;20.93
1926;BME280;964;42.606;23.588;2023-06-14T09:33:35;94263.63;;;44.52;23.30
1926;BME280;964;42.606;23.588;2023-06-14T09:36:02;94271.25;;;44.08;24.05
1926;BME280;964;42.606;23.588;2023-06-14T09:38:29;94259.63;;;45.55;21.94
1926;BME280;964;42.606;23.588;2023-06-14T09:40:57;94255.56;;;46.23;21.65
1926;BME280;964;42.606;23.588;2023-06-14T09:43:25;94255.25;;;45.80;21.78
1926;BME280;964;42.606;23.588;2023-06-14T09:45:54;94250.28;;;45.33;22.08
1926;BME280;964;42.606;23.588;2023-06-14T09:48:21;94248.72;;;45.59;22.66
1926;BME280;964;42.606;23.588;2023-06-14T09:50:49;94233.56;;;46.10;22.38
1926;BME280;964;42.606;23.588;2023-06-14T09:53:21;94235.31;;;45.57;21.91
1926;BME280;964;42.606;23.588;2023-06-14T09:55:49;94246.25;;;44.54;22.27
1926;BME280;964;42.606;23.588;2023-06-14T09:58:20;94245.19;;;44.49;23.71
1926;BME280;964;42.606;23.588;2023-06-14T10:00:51;94258.53;;;43.21;24.33
1926;BME280;964;42.606;23.588;2023-06-14T10:03:28;94242.50;;;43.80;24.40
1926;BME280;964;42.606;23.588;2023-06-14T10:05:58;94238.16;;;43.87;24.12
1926;BME280;964;42.606;23.588;2023-06-14T10:08:28;94227.78;;;44.95;22.96
1926;BME280;964;42.606;23.588;2023-06-14T10:10:58;94236.72;;;44.13;23.56
1926;BME280;964;42.606;23.588;2023-06-14T10:13:26;94233.09;;;43.34;23.74
1926;BME280;964;42.606;23.588;2023-06-14T10:16:00;94232.91;;;43.15;24.26
1926;BME280;964;42.606;23.588;2023-06-14T10:18:38;94226.25;;;43.86;24.13
1926;BME280;964;42.606;23.588;2023-06-14T10:21:14;94222.97;;;45.14;22.62
1926;BME280;964;42.606;23.588;2023-06-14T10:23:44;94209.38;;;45.95;21.76
1926;BME280;964;42.606;23.588;2023-06-14T10:26:18;94207.91;;;47.04;21.82
1926;BME280;964;42.606;23.588;2023-06-14T10:28:56;94217.75;;;46.24;21.43
1926;BME280;964;42.606;23.588;2023-06-14T10:31:39;94225.94;;;44.70;22.90
1926;BME280;964;42.606;23.588;2023-06-14T10:34:06;94223.34;;;44.11;24.01
1926;BME280;964;42.606;23.588;2023-06-14T10:36:33;94226.38;;;44.06;23.61
1926;BME280;964;42.606;23.588;2023-06-14T10:39:04;94232.81;;;43.99;23.22
1926;BME280;964;42.606;23.588;2023-06-14T10:41:35;94231.72;;;43.77;22.87
1926;BME280;964;42.606;23.588;2023-06-14T10:44:32;94228.41;;;43.19;23.60
1926;BME280;964;42.606;23.588;2023-06-14T10:47:01;94229.31;;;42.40;25.40
1926;BME280;964;42.606;23.588;2023-06-14T10:49:38;94212.88;;;43.26;24.35
1926;BME280;964;42.606;23.588;2023-06-14T10:52:08;94223.56;;;42.70;24.62
1926;BME280;964;42.606;23.588;2023-06-14T10:55:02;94220.78;;;43.37;23.79
1926;BME280;964;42.606;23.588;2023-06-14T10:57:31;94220.44;;;42.34;24.61
1926;BME280;964;42.606;23.588;2023-06-14T10:59:59;94214.03;;;43.06;24.22
1926;BME280;964;42.606;23.588;2023-06-14T11:02:59;94216.19;;;42.65;24.00
1926;BME280;964;42.606;23.588;2023-06-14T11:05:42;94207.00;;;44.08;23.96
1926;BME280;964;42.606;23.588;2023-06-14T11:08:40;94194.75;;;44.83;22.66
1926;BME280;964;42.606;23.588;2023-06-14T11:11:10;94184.53;;;45.15;22.02
1926;BME280;964;42.606;23.588;2023-06-14T11:13:38;94174.56;;;45.31;21.71
1926;BME280;964;42.606;23.588;2023-06-14T11:16:10;94181.66;;;46.09;21.56
1926;BME280;964;42.606;23.588;2023-06-14T11:18:39;94180.75;;;45.58;22.02
1926;BME280;964;42.606;23.588;2023-06-14T11:21:06;94174.97;;;46.33;21.92
1926;BME280;964;42.606;23.588;2023-06-14T11:23:34;94181.78;;;44.78;22.49
1926;BME280;964;42.606;23.588;2023-06-14T11:26:00;94178.81;;;45.22;22.78
1926;BME280;964;42.606;23.588;2023-06-14T11:28:36;94177.69;;;45.64;21.16
1926;BME280;964;42.606;23.588;2023-06-14T11:31:03;94166.91;;;45.99;21.46
1926;BME280;964;42.606;23.588;2023-06-14T11:33:30;94171.59;;;45.10;22.49
1926;BME280;964;42.606;23.588;2023-06-14T11:35:58;94175.63;;;44.89;24.00
1926;BME280;964;42.606;23.588;2023-06-14T11:38:25;94155.56;;;45.77;22.00
1926;BME280;964;42.606;23.588;2023-06-14T11:40:52;94165.47;;;46.38;20.02
1926;BME280;964;42.606;23.588;2023-06-14T11:43:19;94166.13;;;46.67;22.85
1926;BME280;964;42.606;23.588;2023-06-14T11:45:48;94162.75;;;46.19;19.58
1926;BME280;964;42.606;23.588;2023-06-14T11:48:14;94165.84;;;45.27;21.24
1926;BME280;964;42.606;23.588;2023-06-14T11:50:41;94172.91;;;44.36;23.20
1926;BME280;964;42.606;23.588;2023-06-14T11:53:09;94168.53;;;43.72;22.85
1926;BME280;964;42.606;23.588;2023-06-14T11:55:36;94151.22;;;45.00;22.49
1926;BME280;964;42.606;23.588;2023-06-14T11:58:04;94158.94;;;44.36;22.70
1926;BME280;964;42.606;23.588;2023-06-14T12:00:31;94157.41;;;43.30;22.65
1926;BME280;964;42.606;23.588;2023-06-14T12:02:58;94156.38;;;43.42;22.68
1926;BME280;964;42.606;23.588;2023-06-14T12:05:25;94139.16;;;43.98;23.04
1926;BME280;964;42.606;23.588;2023-06-14T12:07:58;94150.38;;;43.63;22.53
1926;BME280;964;42.606;23.588;2023-06-14T12:10:27;94147.97;;;43.25;22.66
1926;BME280;964;42.606;23.588;2023-06-14T12:12:57;94162.97;;;40.66;25.11
1926;BME280;964;42.606;23.588;2023-06-14T12:15:27;94149.56;;;40.26;26.76
1926;BME280;964;42.606;23.588;2023-06-14T12:17:54;94148.75;;;39.16;27.76
1926;BME280;964;42.606;23.588;2023-06-14T12:20:20;94143.56;;;38.63;29.29
1926;BME280;964;42.606;23.588;2023-06-14T12:22:51;94144.66;;;39.81;27.56
1926;BME280;964;42.606;23.588;2023-06-14T12:25:27;94141.97;;;39.68;27.39
1926;BME280;964;42.606;23.588;2023-06-14T12:27:54;94144.59;;;40.47;26.76
1926;BME280;964;42.606;23.588;2023-06-14T12:30:21;94150.31;;;40.27;26.94
1926;BME280;964;42.606;23.588;2023-06-14T12:32:48;94159.47;;;39.91;26.91
1926;BME280;964;42.606;23.588;2023-06-14T12:35:16;94144.59;;;40.32;25.98
1926;BME280;964;42.606;23.588;2023-06-14T12:37:43;94133.84;;;40.97;24.61
1926;BME280;964;42.606;23.588;2023-06-14T12:40:11;94133.09;;;42.39;24.46
1926;BME280;964;42.606;23.588;2023-06-14T12:42:39;94112.28;;;42.40;24.50
1926;BME280;964;42.606;23.588;2023-06-14T12:45:07;94121.56;;;42.10;24.90
1926;BME280;964;42.606;23.588;2023-06-14T12:47:33;94121.47;;;40.60;26.16
1926;BME280;964;42.606;23.588;2023-06-14T12:50:01;94115.69;;;42.31;25.15
1926;BME280;964;42.606;23.588;2023-06-14T12:52:27;94114.66;;;42.19;25.67
1926;BME280;964;42.606;23.588;2023-06-14T12:54:54;94115.75;;;41.51;25.22
1926;BME280;964;42.606;23.588;2023-06-14T12:57:20;94115.03;;;41.35;25.62
1926;BME280;964;42.606;23.588;2023-06-14T12:59:48;94118.84;;;41.00;26.23
1926;BME280;964;42.606;23.588;2023-06-14T13:02:16;94107.31;;;40.05;26.95
1926;BME280;964;42.606;23.588;2023-06-14T13:04:43;94122.38;;;39.66;26.12
1926;BME280;964;42.606;23.588;2023-06-14T13:07:10;94116.75;;;39.51;26.67
1926;BME280;964;42.606;23.588;2023-06-14T13:09:37;94109.06;;;40.61;26.23
1926;BME280;964;42.606;23.588;2023-06-14T13:12:03;94105.75;;;41.33;25.03
1926;BME280;964;42.606;23.588;2023-06-14T13:14:31;94103.19;;;39.76;26.42
1926;BME280;964;42.606;23.588;2023-06-14T13:16:59;94108.50;;;38.66;27.63
1926;BME280;964;42.606;23.588;2023-06-14T13:19:26;94092.44;;;39.72;26.50
1926;BME280;964;42.606;23.588;2023-06-14T13:21:52;94106.53;;;39.02;26.68
1926;BME280;964;42.606;23.588;2023-06-14T13:24:19;94110.69;;;38.60;27.22
1926;BME280;964;42.606;23.588;2023-06-14T13:26:46;94122.53;;;39.24;26.01
1926;BME280;964;42.606;23.588;2023-06-14T13:29:12;94123.75;;;39.37;27.05
1926;BME280;964;42.606;23.588;2023-06-14T13:31:39;94121.28;;;38.69;27.83
1926;BME280;964;42.606;23.588;2023-06-14T13:34:07;94120.38;;;38.74;28.05
1926;BME280;964;42.606;23.588;2023-06-14T13:36:34;94119.88;;;38.13;28.53
1926;BME280;964;42.606;23.588;2023-06-14T13:39:01;94119.66;;;38.32;28.06
1926;BME280;964;42.606;23.588;2023-06-14T13:41:28;94112.84;;;38.12;28.72
1926;BME280;964;42.606;23.588;2023-06-14T13:43:57;94124.41;;;38.73;27.91
1926;BME280;964;42.606;23.588;2023-06-14T13:46:25;94122.84;;;38.36;28.27
1926;BME280;964;42.606;23.588;2023-06-14T13:48:52;94127.63;;;38.36;28.45
1926;BME280;964;42.606;23.588;2023-06-14T13:51:20;94132.41;;;37.60;28.98
1926;BME280;964;42.606;23.588;2023-06-14T13:53:48;94139.88;;;38.61;28.29
1926;BME280;964;42.606;23.588;2023-06-14T13:56:16;94137.16;;;39.25;28.17
1926;BME280;964;42.606;23.588;2023-06-14T13:58:43;94144.03;;;38.75;28.29
1926;BME280;964;42.606;23.588;2023-06-14T14:01:10;94144.44;;;38.79;28.88
1926;BME280;964;42.606;23.588;2023-06-14T14:03:37;94149.31;;;38.45;29.37
1926;BME280;964;42.606;23.588;2023-06-14T14:06:04;94157.16;;;39.67;29.50
1926;BME280;964;42.606;23.588;2023-06-14T14:08:35;94145.06;;;40.00;30.57
1926;BME280;964;42.606;23.588;2023-06-14T14:11:01;94155.13;;;39.32;31.00